sensor_id;sensor_type;location;lat;lon;timestamp;pressure;altitude;pressure_sealevel;temperature;humidity
8039;BME280;4062;49.844;8.120;2023-03-03T00:00:08;99641.31;;;14.23;53.39
8039;BME280;4062;49.844;8.120;2023-03-03T00:02:15;99643.97;;;14.23;53.37
8039;BME280;4062;49.844;8.120;2023-03-03T00:04:16;99646.63;;;14.23;53.32
8039;BME280;4062;49.844;8.120;2023-03-03T00:06:17;99641.31;;;14.23;53.41
8039;BME280;4062;49.844;8.120;2023-03-03T00:08:20;99643.97;;;14.23;53.41
8039;BME280;4062;49.844;8.120;2023-03-03T00:10:22;99641.31;;;14.23;53.46
8039;BME280;4062;49.844;8.120;2023-03-03T00:12:29;99639.53;;;14.23;53.40
8039;BME280;4062;49.844;8.120;2023-03-03T00:14:31;99640.47;;;14.22;53.35
8039;BME280;4062;49.844;8.120;2023-03-03T00:16:38;99647.56;;;14.22;53.36
8039;BME280;4062;49.844;8.120;2023-03-03T00:18:44;99639.59;;;14.22;53.35
8039;BME280;4062;49.844;8.120;2023-03-03T00:20:54;99640.47;;;14.22;53.38
8039;BME280;4062;49.844;8.120;2023-03-03T00:23:12;99644.03;;;14.21;53.26
8039;BME280;4062;49.844;8.120;2023-03-03T00:27:28;99653.75;;;14.22;53.33
8039;BME280;4062;49.844;8.120;2023-03-03T00:29:47;99650.22;;;14.22;53.25
8039;BME280;4062;49.844;8.120;2023-03-03T00:31:50;99651.09;;;14.22;53.25
8039;BME280;4062;49.844;8.120;2023-03-03T00:33:53;99652.88;;;14.22;53.46
8039;BME280;4062;49.844;8.120;2023-03-03T00:38:17;99653.75;;;14.22;53.26
8039;BME280;4062;49.844;8.120;2023-03-03T00:40:22;99656.41;;;14.22;53.38
8039;BME280;4062;49.844;8.120;2023-03-03T00:42:25;99660.84;;;14.22;53.38
8039;BME280;4062;49.844;8.120;2023-03-03T00:44:42;99668.81;;;14.22;53.24
8039;BME280;4062;49.844;8.120;2023-03-03T00:46:44;99667.03;;;14.22;53.28
8039;BME280;4062;49.844;8.120;2023-03-03T00:48:46;99671.47;;;14.22;53.42
8039;BME280;4062;49.844;8.120;2023-03-03T00:50:47;99674.13;;;14.22;53.51
8039;BME280;4062;49.844;8.120;2023-03-03T00:53:15;99679.44;;;14.22;53.28
8039;BME280;4062;49.844;8.120;2023-03-03T00:55:16;99676.78;;;14.22;53.22
8039;BME280;4062;49.844;8.120;2023-03-03T00:57:17;99675.00;;;14.22;53.61
8039;BME280;4062;49.844;8.120;2023-03-03T00:59:19;99674.13;;;14.22;53.23
8039;BME280;4062;49.844;8.120;2023-03-03T01:01:20;99672.34;;;14.22;53.29
8039;BME280;4062;49.844;8.120;2023-03-03T01:03:26;99677.69;;;14.21;53.33
8039;BME280;4062;49.844;8.120;2023-03-03T01:05:28;99676.78;;;14.22;53.45
8039;BME280;4062;49.844;8.120;2023-03-03T01:07:28;99673.28;;;14.21;53.29
8039;BME280;4062;49.844;8.120;2023-03-03T01:09:29;99677.69;;;14.22;53.41
8039;BME280;4062;49.844;8.120;2023-03-03T01:11:30;99672.34;;;14.22;53.35
8039;BME280;4062;49.844;8.120;2023-03-03T01:13:33;99675.94;;;14.21;53.45
8039;BME280;4062;49.844;8.120;2023-03-03T01:15:36;99672.38;;;14.21;53.47
8039;BME280;4062;49.844;8.120;2023-03-03T01:17:38;99673.28;;;14.21;53.44
8039;BME280;4062;49.844;8.120;2023-03-03T01:19:40;99673.28;;;14.21;53.37
8039;BME280;4062;49.844;8.120;2023-03-03T01:21:41;99672.38;;;14.21;53.32
8039;BME280;4062;49.844;8.120;2023-03-03T01:23:41;99665.31;;;14.21;53.33
8039;BME280;4062;49.844;8.120;2023-03-03T01:25:42;99664.41;;;14.21;53.38
8039;BME280;4062;49.844;8.120;2023-03-03T01:27:43;99657.34;;;14.21;53.32
8039;BME280;4062;49.844;8.120;2023-03-03T01:29:44;99651.13;;;14.21;53.23
8039;BME280;4062;49.844;8.120;2023-03-03T01:31:45;99649.34;;;14.21;53.22
8039;BME280;4062;49.844;8.120;2023-03-03T01:33:46;99652.03;;;14.21;53.31
8039;BME280;4062;49.844;8.120;2023-03-03T01:35:47;99654.72;;;14.20;53.38
8039;BME280;4062;49.844;8.120;2023-03-03T01:37:48;99651.13;;;14.21;53.31
8039;BME280;4062;49.844;8.120;2023-03-03T01:39:53;99652.94;;;14.20;53.46
8039;BME280;4062;49.844;8.120;2023-03-03T01:41:55;99660.03;;;14.20;53.44
8039;BME280;4062;49.844;8.120;2023-03-03T01:43:56;99655.59;;;14.20;53.34
8039;BME280;4062;49.844;8.120;2023-03-03T01:48:15;99662.69;;;14.20;53.33
8039;BME280;4062;49.844;8.120;2023-03-03T01:50:56;99667.06;;;14.21;53.26
8039;BME280;4062;49.844;8.120;2023-03-03T01:53:03;99651.19;;;14.19;53.31
8039;BME280;4062;49.844;8.120;2023-03-03T01:55:20;99664.41;;;14.21;53.44
8039;BME280;4062;49.844;8.120;2023-03-03T01:57:33;99667.06;;;14.21;53.35
8039;BME280;4062;49.844;8.120;2023-03-03T01:59:43;99663.56;;;14.20;53.29
8039;BME280;4062;49.844;8.120;2023-03-03T02:01:47;99663.56;;;14.20;53.42
8039;BME280;4062;49.844;8.120;2023-03-03T02:03:48;99654.72;;;14.20;53.44
8039;BME280;4062;49.844;8.120;2023-03-03T02:05:53;99664.47;;;14.19;53.39
8039;BME280;4062;49.844;8.120;2023-03-03T02:07:55;99662.75;;;14.18;53.41
8039;BME280;4062;49.844;8.120;2023-03-03T02:10:08;99663.56;;;14.20;53.29
8039;BME280;4062;49.844;8.120;2023-03-03T02:12:13;99653.84;;;14.19;53.39
8039;BME280;4062;49.844;8.120;2023-03-03T02:14:17;99656.50;;;14.19;53.31
8039;BME280;4062;49.844;8.120;2023-03-03T02:16:18;99646.72;;;14.20;53.27
8039;BME280;4062;49.844;8.120;2023-03-03T02:18:19;99655.63;;;14.19;53.44
8039;BME280;4062;49.844;8.120;2023-03-03T02:27:50;99644.13;;;14.18;53.25
8039;BME280;4062;49.844;8.120;2023-03-03T02:29:51;99644.13;;;14.18;53.24
8039;BME280;4062;49.844;8.120;2023-03-03T02:31:52;99647.66;;;14.19;53.37
8039;BME280;4062;49.844;8.120;2023-03-03T02:33:55;99651.25;;;14.18;53.26
8039;BME280;4062;49.844;8.120;2023-03-03T02:35:56;99654.78;;;14.18;53.37
8039;BME280;4062;49.844;8.120;2023-03-03T02:38:16;99656.56;;;14.18;53.32
8039;BME280;4062;49.844;8.120;2023-03-03T02:40:23;99657.44;;;14.18;53.39
8039;BME280;4062;49.844;8.120;2023-03-03T02:42:28;99653.03;;;14.17;53.62
8039;BME280;4062;49.844;8.120;2023-03-03T02:44:32;99648.59;;;14.18;53.33
8039;BME280;4062;49.844;8.120;2023-03-03T02:46:37;99654.78;;;14.18;53.27
8039;BME280;4062;49.844;8.120;2023-03-03T02:48:39;99649.53;;;14.17;53.33
8039;BME280;4062;49.844;8.120;2023-03-03T02:50:40;99646.88;;;14.17;53.25
8039;BME280;4062;49.844;8.120;2023-03-03T02:52:41;99653.03;;;14.17;53.28
8039;BME280;4062;49.844;8.120;2023-03-03T02:54:42;99648.59;;;14.18;53.24
8039;BME280;4062;49.844;8.120;2023-03-03T02:56:43;99640.63;;;14.18;53.25
8039;BME280;4062;49.844;8.120;2023-03-03T02:58:44;99640.63;;;14.18;53.36
8039;BME280;4062;49.844;8.120;2023-03-03T03:00:45;99653.03;;;14.17;53.33
8039;BME280;4062;49.844;8.120;2023-03-03T03:02:53;99653.09;;;14.16;53.41
8039;BME280;4062;49.844;8.120;2023-03-03T03:04:54;99655.69;;;14.17;53.27
8039;BME280;4062;49.844;8.120;2023-03-03T03:06:58;99645.13;;;14.16;53.35
8039;BME280;4062;49.844;8.120;2023-03-03T03:09:03;99644.22;;;14.17;53.27
8039;BME280;4062;49.844;8.120;2023-03-03T03:11:04;99653.94;;;14.16;53.25
8039;BME280;4062;49.844;8.120;2023-03-03T03:13:06;99653.94;;;14.16;53.39
8039;BME280;4062;49.844;8.120;2023-03-03T03:15:08;99656.59;;;14.16;53.39
8039;BME280;4062;49.844;8.120;2023-03-03T03:17:09;99654.84;;;14.17;53.38
8039;BME280;4062;49.844;8.120;2023-03-03T03:19:11;99659.25;;;14.16;53.50
8039;BME280;4062;49.844;8.120;2023-03-03T03:21:13;99658.41;;;14.16;53.36
8039;BME280;4062;49.844;8.120;2023-03-03T03:23:16;99662.84;;;14.15;53.26
8039;BME280;4062;49.844;8.120;2023-03-03T03:25:17;99660.16;;;14.17;53.20
8039;BME280;4062;49.844;8.120;2023-03-03T03:27:18;99655.75;;;14.16;53.28
8039;BME280;4062;49.844;8.120;2023-03-03T03:29:20;99661.06;;;14.16;53.43
8039;BME280;4062;49.844;8.120;2023-03-03T03:31:21;99661.06;;;14.16;53.33
8039;BME280;4062;49.844;8.120;2023-03-03T03:33:22;99659.31;;;14.15;53.27
8039;BME280;4062;49.844;8.120;2023-03-03T03:35:24;99668.16;;;14.15;53.28
8039;BME280;4062;49.844;8.120;2023-03-03T03:37:24;99663.72;;;14.16;53.32
8039;BME280;4062;49.844;8.120;2023-03-03T03:39:25;99667.31;;;14.15;53.06
8039;BME280;4062;49.844;8.120;2023-03-03T03:41:27;99667.31;;;14.15;53.42
8039;BME280;4062;49.844;8.120;2023-03-03T03:43:29;99669.97;;;14.15;53.36
8039;BME280;4062;49.844;8.120;2023-03-03T03:45:30;99668.22;;;14.14;53.39
8039;BME280;4062;49.844;8.120;2023-03-03T03:47:31;99666.41;;;14.14;53.36
8039;BME280;4062;49.844;8.120;2023-03-03T03:49:32;99662.06;;;14.13;53.31
8039;BME280;4062;49.844;8.120;2023-03-03T03:51:34;99670.88;;;14.14;53.29
8039;BME280;4062;49.844;8.120;2023-03-03T03:53:38;99664.72;;;14.13;53.28
8039;BME280;4062;49.844;8.120;2023-03-03T03:55:39;99672.69;;;14.13;53.36
8039;BME280;4062;49.844;8.120;2023-03-03T03:57:41;99668.22;;;14.14;53.35
8039;BME280;4062;49.844;8.120;2023-03-03T03:59:42;99675.28;;;14.15;53.23
8039;BME280;4062;49.844;8.120;2023-03-03T04:01:43;99678.84;;;14.14;53.42
8039;BME280;4062;49.844;8.120;2023-03-03T04:03:44;99678.84;;;14.14;53.38
8039;BME280;4062;49.844;8.120;2023-03-03T04:05:52;99675.34;;;14.13;53.32
8039;BME280;4062;49.844;8.120;2023-03-03T04:07:54;99676.19;;;14.14;53.45
8039;BME280;4062;49.844;8.120;2023-03-03T04:09:55;99671.78;;;14.13;53.41
8039;BME280;4062;49.844;8.120;2023-03-03T04:11:56;99681.50;;;14.14;53.16
8039;BME280;4062;49.844;8.120;2023-03-03T04:13:57;99674.44;;;14.13;53.36
8039;BME280;4062;49.844;8.120;2023-03-03T04:16:00;99675.34;;;14.13;53.31
8039;BME280;4062;49.844;8.120;2023-03-03T04:18:02;99672.72;;;14.12;53.26
8039;BME280;4062;49.844;8.120;2023-03-03T04:20:05;99678.03;;;14.12;53.43
8039;BME280;4062;49.844;8.120;2023-03-03T04:22:07;99680.69;;;14.12;53.33
8039;BME280;4062;49.844;8.120;2023-03-03T04:24:08;99680.69;;;14.12;53.59
8039;BME280;4062;49.844;8.120;2023-03-03T04:26:09;99673.63;;;14.11;53.43
8039;BME280;4062;49.844;8.120;2023-03-03T04:28:10;99676.28;;;14.11;53.26
8039;BME280;4062;49.844;8.120;2023-03-03T04:30:14;99687.78;;;14.11;53.24
8039;BME280;4062;49.844;8.120;2023-03-03T04:32:17;99680.75;;;14.10;53.34
8039;BME280;4062;49.844;8.120;2023-03-03T04:34:19;99672.78;;;14.10;53.42
8039;BME280;4062;49.844;8.120;2023-03-03T04:36:24;99683.41;;;14.10;53.51
8039;BME280;4062;49.844;8.120;2023-03-03T04:38:25;99673.63;;;14.11;53.53
8039;BME280;4062;49.844;8.120;2023-03-03T04:40:28;99673.63;;;14.11;53.57
8039;BME280;4062;49.844;8.120;2023-03-03T04:42:29;99678.91;;;14.12;53.46
8039;BME280;4062;49.844;8.120;2023-03-03T04:44:30;99674.44;;;14.13;53.35
8039;BME280;4062;49.844;8.120;2023-03-03T04:46:31;99678.00;;;14.13;53.48
8039;BME280;4062;49.844;8.120;2023-03-03T04:48:32;99682.34;;;14.14;53.49
8039;BME280;4062;49.844;8.120;2023-03-03T04:50:34;99676.19;;;14.14;53.36
8039;BME280;4062;49.844;8.120;2023-03-03T04:52:35;99672.63;;;14.15;53.29
8039;BME280;4062;49.844;8.120;2023-03-03T04:54:37;99678.78;;;14.15;53.38
8039;BME280;4062;49.844;8.120;2023-03-03T04:56:38;99685.00;;;14.14;53.61
8039;BME280;4062;49.844;8.120;2023-03-03T04:58:40;99692.06;;;14.15;53.31
8039;BME280;4062;49.844;8.120;2023-03-03T05:00:41;99695.63;;;14.14;53.43
8039;BME280;4062;49.844;8.120;2023-03-03T05:02:43;99702.69;;;14.15;53.55
8039;BME280;4062;49.844;8.120;2023-03-03T05:04:44;99705.34;;;14.15;53.42
8039;BME280;4062;49.844;8.120;2023-03-03T05:06:45;99701.84;;;14.15;53.38
8039;BME280;4062;49.844;8.120;2023-03-03T05:08:46;99699.19;;;14.15;53.43
8039;BME280;4062;49.844;8.120;2023-03-03T05:10:52;99707.09;;;14.16;53.36
8039;BME280;4062;49.844;8.120;2023-03-03T05:12:53;99702.69;;;14.15;53.43
8039;BME280;4062;49.844;8.120;2023-03-03T05:14:54;99700.03;;;14.15;53.42
8039;BME280;4062;49.844;8.120;2023-03-03T05:16:55;99700.03;;;14.15;53.29
8039;BME280;4062;49.844;8.120;2023-03-03T05:18:56;99695.63;;;14.16;53.62
8039;BME280;4062;49.844;8.120;2023-03-03T05:20:57;99704.50;;;14.15;53.51
8039;BME280;4062;49.844;8.120;2023-03-03T05:22:58;99699.13;;;14.16;53.43
8039;BME280;4062;49.844;8.120;2023-03-03T05:25:01;99702.69;;;14.15;53.23
8039;BME280;4062;49.844;8.120;2023-03-03T05:27:02;99700.03;;;14.15;53.35
8039;BME280;4062;49.844;8.120;2023-03-03T05:29:03;99696.47;;;14.16;53.47
8039;BME280;4062;49.844;8.120;2023-03-03T05:31:04;99703.63;;;14.14;53.50
8039;BME280;4062;49.844;8.120;2023-03-03T05:33:05;99697.38;;;14.15;53.43
8039;BME280;4062;49.844;8.120;2023-03-03T05:35:07;99701.84;;;14.15;53.44
8039;BME280;4062;49.844;8.120;2023-03-03T05:37:08;99700.03;;;14.15;53.53
8039;BME280;4062;49.844;8.120;2023-03-03T05:39:08;99700.94;;;14.16;53.32
8039;BME280;4062;49.844;8.120;2023-03-03T05:41:09;99693.88;;;14.15;53.50
8039;BME280;4062;49.844;8.120;2023-03-03T05:43:10;99697.38;;;14.15;53.38
8039;BME280;4062;49.844;8.120;2023-03-03T05:45:11;99692.97;;;14.14;53.53
8039;BME280;4062;49.844;8.120;2023-03-03T05:47:12;99702.75;;;14.14;53.58
8039;BME280;4062;49.844;8.120;2023-03-03T05:49:13;99704.50;;;14.15;53.48
8039;BME280;4062;49.844;8.120;2023-03-03T05:51:14;99707.16;;;14.15;53.30
8039;BME280;4062;49.844;8.120;2023-03-03T05:53:15;99703.63;;;14.14;53.44
8039;BME280;4062;49.844;8.120;2023-03-03T05:55:17;99707.16;;;14.15;53.33
8039;BME280;4062;49.844;8.120;2023-03-03T05:57:18;99705.41;;;14.14;53.31
8039;BME280;4062;49.844;8.120;2023-03-03T05:59:19;99709.81;;;14.15;53.34
8039;BME280;4062;49.844;8.120;2023-03-03T06:01:20;99711.59;;;14.14;53.29
8039;BME280;4062;49.844;8.120;2023-03-03T06:03:21;99716.91;;;14.14;53.30
8039;BME280;4062;49.844;8.120;2023-03-03T06:05:22;99712.53;;;14.13;53.39
8039;BME280;4062;49.844;8.120;2023-03-03T06:07:23;99717.78;;;14.15;53.46
8039;BME280;4062;49.844;8.120;2023-03-03T06:09:24;99720.50;;;14.13;53.38
8039;BME280;4062;49.844;8.120;2023-03-03T06:11:26;99730.19;;;14.14;53.55
8039;BME280;4062;49.844;8.120;2023-03-03T06:13:26;99724.00;;;14.14;53.50
8039;BME280;4062;49.844;8.120;2023-03-03T06:15:27;99724.84;;;14.16;53.57
8039;BME280;4062;49.844;8.120;2023-03-03T06:17:28;99731.91;;;14.17;53.41
8039;BME280;4062;49.844;8.120;2023-03-03T06:19:29;99732.75;;;14.17;53.49
8039;BME280;4062;49.844;8.120;2023-03-03T06:21:30;99735.34;;;14.19;53.51
8039;BME280;4062;49.844;8.120;2023-03-03T06:23:31;99737.09;;;14.20;53.43
8039;BME280;4062;49.844;8.120;2023-03-03T06:25:32;99737.06;;;14.21;53.42
8039;BME280;4062;49.844;8.120;2023-03-03T06:27:35;99736.13;;;14.22;53.64
8039;BME280;4062;49.844;8.120;2023-03-03T06:29:36;99736.06;;;14.24;53.62
8039;BME280;4062;49.844;8.120;2023-03-03T06:31:37;99746.66;;;14.26;53.73
8039;BME280;4062;49.844;8.120;2023-03-03T06:33:37;99753.63;;;14.28;53.50
8039;BME280;4062;49.844;8.120;2023-03-03T06:35:38;99745.66;;;14.28;53.51
8039;BME280;4062;49.844;8.120;2023-03-03T06:37:39;99752.69;;;14.31;53.62
8039;BME280;4062;49.844;8.120;2023-03-03T06:39:40;99752.63;;;14.32;53.61
8039;BME280;4062;49.844;8.120;2023-03-03T06:41:41;99755.22;;;14.34;53.63
8039;BME280;4062;49.844;8.120;2023-03-03T06:43:42;99747.25;;;14.34;53.88
8039;BME280;4062;49.844;8.120;2023-03-03T06:45:44;99757.84;;;14.35;53.47
8039;BME280;4062;49.844;8.120;2023-03-03T06:47:45;99755.19;;;14.35;53.43
8039;BME280;4062;49.844;8.120;2023-03-03T06:49:46;99770.19;;;14.36;53.51
8039;BME280;4062;49.844;8.120;2023-03-03T06:51:47;99763.09;;;14.37;53.48
8039;BME280;4062;49.844;8.120;2023-03-03T06:53:54;99768.41;;;14.37;53.49
8039;BME280;4062;49.844;8.120;2023-03-03T06:55:57;99768.41;;;14.37;53.48
8039;BME280;4062;49.844;8.120;2023-03-03T06:57:59;99774.59;;;14.37;53.47
8039;BME280;4062;49.844;8.120;2023-03-03T07:00:23;99771.94;;;14.37;53.50
8039;BME280;4062;49.844;8.120;2023-03-03T07:02:24;99780.78;;;14.38;53.38
8039;BME280;4062;49.844;8.120;2023-03-03T07:04:31;99780.78;;;14.38;53.55
8039;BME280;4062;49.844;8.120;2023-03-03T07:06:33;99787.88;;;14.37;53.46
8039;BME280;4062;49.844;8.120;2023-03-03T07:08:34;99784.38;;;14.37;53.49
8039;BME280;4062;49.844;8.120;2023-03-03T07:10:35;99795.84;;;14.37;53.40
8039;BME280;4062;49.844;8.120;2023-03-03T07:12:38;99795.00;;;14.37;53.36
8039;BME280;4062;49.844;8.120;2023-03-03T07:14:50;99789.69;;;14.37;53.52
8039;BME280;4062;49.844;8.120;2023-03-03T07:17:04;99795.84;;;14.37;53.46
8039;BME280;4062;49.844;8.120;2023-03-03T07:19:34;99801.19;;;14.37;53.79
8039;BME280;4062;49.844;8.120;2023-03-03T07:21:36;99808.28;;;14.37;53.52
8039;BME280;4062;49.844;8.120;2023-03-03T07:23:38;99816.28;;;14.37;53.60
8039;BME280;4062;49.844;8.120;2023-03-03T07:25:42;99817.19;;;14.36;53.41
8039;BME280;4062;49.844;8.120;2023-03-03T07:27:45;99823.34;;;14.36;53.58
8039;BME280;4062;49.844;8.120;2023-03-03T07:29:47;99822.50;;;14.36;53.49
8039;BME280;4062;49.844;8.120;2023-03-03T07:31:49;99821.59;;;14.37;53.46
8039;BME280;4062;49.844;8.120;2023-03-03T07:33:50;99819.00;;;14.35;53.43
8039;BME280;4062;49.844;8.120;2023-03-03T07:35:55;99820.75;;;14.35;53.37
8039;BME280;4062;49.844;8.120;2023-03-03T07:37:56;99832.28;;;14.35;53.42
8039;BME280;4062;49.844;8.120;2023-03-03T07:39:58;99827.88;;;14.34;53.43
8039;BME280;4062;49.844;8.120;2023-03-03T07:45:02;99838.50;;;14.34;53.31
8039;BME280;4062;49.844;8.120;2023-03-03T07:47:34;99846.50;;;14.33;53.24
8039;BME280;4062;49.844;8.120;2023-03-03T07:49:36;99854.50;;;14.33;53.49
8039;BME280;4062;49.844;8.120;2023-03-03T07:51:39;99843.00;;;14.32;53.39
8039;BME280;4062;49.844;8.120;2023-03-03T07:53:43;99849.16;;;14.33;53.34
8039;BME280;4062;49.844;8.120;2023-03-03T07:55:44;99850.97;;;14.32;53.28
8039;BME280;4062;49.844;8.120;2023-03-03T07:57:45;99857.22;;;14.31;53.27
8039;BME280;4062;49.844;8.120;2023-03-03T08:02:38;99858.13;;;14.30;53.18
8039;BME280;4062;49.844;8.120;2023-03-03T08:04:46;99874.06;;;14.30;53.22
8039;BME280;4062;49.844;8.120;2023-03-03T08:06:53;99879.38;;;14.30;53.32
8039;BME280;4062;49.844;8.120;2023-03-03T08:11:09;99875.91;;;14.28;53.14
8039;BME280;4062;49.844;8.120;2023-03-03T08:13:37;99882.09;;;14.29;53.17
8039;BME280;4062;49.844;8.120;2023-03-03T08:15:38;99869.72;;;14.28;53.21
8039;BME280;4062;49.844;8.120;2023-03-03T08:17:40;99870.59;;;14.28;53.34
8039;BME280;4062;49.844;8.120;2023-03-03T08:19:42;99872.38;;;14.28;53.22
8039;BME280;4062;49.844;8.120;2023-03-03T08:21:43;99869.72;;;14.28;53.35
8039;BME280;4062;49.844;8.120;2023-03-03T08:23:46;99871.53;;;14.27;53.26
8039;BME280;4062;49.844;8.120;2023-03-03T08:25:51;99875.03;;;14.28;53.44
8039;BME280;4062;49.844;8.120;2023-03-03T08:27:53;99869.72;;;14.28;53.22
8039;BME280;4062;49.844;8.120;2023-03-03T08:29:53;99872.38;;;14.28;53.22
8039;BME280;4062;49.844;8.120;2023-03-03T08:31:54;99876.72;;;14.30;53.39
8039;BME280;4062;49.844;8.120;2023-03-03T08:33:55;99877.63;;;14.31;53.51
8039;BME280;4062;49.844;8.120;2023-03-03T08:35:56;99878.47;;;14.31;53.35
8039;BME280;4062;49.844;8.120;2023-03-03T08:37:57;99875.81;;;14.31;53.30
8039;BME280;4062;49.844;8.120;2023-03-03T08:39:58;99878.41;;;14.33;53.50
8039;BME280;4062;49.844;8.120;2023-03-03T08:41:59;99892.59;;;14.33;53.51
8039;BME280;4062;49.844;8.120;2023-03-03T08:44:00;99884.63;;;14.33;53.27
8039;BME280;4062;49.844;8.120;2023-03-03T08:46:03;99889.88;;;14.35;53.30
8039;BME280;4062;49.844;8.120;2023-03-03T08:48:05;99886.34;;;14.34;53.43
8039;BME280;4062;49.844;8.120;2023-03-03T08:50:06;99880.97;;;14.36;53.46
8039;BME280;4062;49.844;8.120;2023-03-03T08:52:07;99880.13;;;14.35;53.32
8039;BME280;4062;49.844;8.120;2023-03-03T08:54:08;99882.78;;;14.35;53.30
8039;BME280;4062;49.844;8.120;2023-03-03T08:56:09;99882.78;;;14.35;53.52
8039;BME280;4062;49.844;8.120;2023-03-03T08:58:10;99886.28;;;14.36;53.52
8039;BME280;4062;49.844;8.120;2023-03-03T09:00:16;99894.28;;;14.36;53.53
8039;BME280;4062;49.844;8.120;2023-03-03T09:02:17;99887.16;;;14.36;53.55
8039;BME280;4062;49.844;8.120;2023-03-03T09:04:18;99888.97;;;14.36;53.47
8039;BME280;4062;49.844;8.120;2023-03-03T09:06:18;99886.28;;;14.36;53.30
8039;BME280;4062;49.844;8.120;2023-03-03T09:08:19;99891.63;;;14.36;53.47
8039;BME280;4062;49.844;8.120;2023-03-03T09:10:24;99891.63;;;14.36;53.29
8039;BME280;4062;49.844;8.120;2023-03-03T09:12:34;99880.97;;;14.36;53.30
8039;BME280;4062;49.844;8.120;2023-03-03T09:14:35;99888.09;;;14.35;53.32
8039;BME280;4062;49.844;8.120;2023-03-03T09:16:47;99897.84;;;14.35;53.27
8039;BME280;4062;49.844;8.120;2023-03-03T09:18:49;99893.41;;;14.35;53.25
8039;BME280;4062;49.844;8.120;2023-03-03T09:20:54;99893.41;;;14.35;53.25
8039;BME280;4062;49.844;8.120;2023-03-03T09:22:58;99887.22;;;14.35;53.17
8039;BME280;4062;49.844;8.120;2023-03-03T09:24:59;99889.88;;;14.35;53.23
8039;BME280;4062;49.844;8.120;2023-03-03T09:27:01;99897.00;;;14.34;53.17
8039;BME280;4062;49.844;8.120;2023-03-03T09:29:08;99888.13;;;14.34;53.14
8039;BME280;4062;49.844;8.120;2023-03-03T09:31:39;99897.00;;;14.34;53.15
8039;BME280;4062;49.844;8.120;2023-03-03T09:33:44;99906.72;;;14.34;53.16
8039;BME280;4062;49.844;8.120;2023-03-03T09:35:48;99900.56;;;14.33;53.45
8039;BME280;4062;49.844;8.120;2023-03-03T09:37:50;99906.72;;;14.34;53.16
8039;BME280;4062;49.844;8.120;2023-03-03T09:39:54;99908.53;;;14.33;53.14
8039;BME280;4062;49.844;8.120;2023-03-03T09:45:23;99903.22;;;14.33;53.11
8039;BME280;4062;49.844;8.120;2023-03-03T09:57:53;99923.66;;;14.31;53.13
8039;BME280;4062;49.844;8.120;2023-03-03T10:02:47;99926.31;;;14.31;53.08
8039;BME280;4062;49.844;8.120;2023-03-03T10:05:13;99923.66;;;14.31;53.13
8039;BME280;4062;49.844;8.120;2023-03-03T10:10:52;99926.31;;;14.31;53.31
8039;BME280;4062;49.844;8.120;2023-03-03T10:18:51;99925.47;;;14.31;53.12
8039;BME280;4062;49.844;8.120;2023-03-03T10:21:18;99926.31;;;14.31;53.13
8039;BME280;4062;49.844;8.120;2023-03-03T10:25:51;99925.41;;;14.32;53.28
8039;BME280;4062;49.844;8.120;2023-03-03T10:41:25;99921.78;;;14.35;53.25
8039;BME280;4062;49.844;8.120;2023-03-03T10:43:57;99924.38;;;14.36;53.32
8039;BME280;4062;49.844;8.120;2023-03-03T10:51:13;99929.69;;;14.36;53.33
8039;BME280;4062;49.844;8.120;2023-03-03T10:53:37;99924.34;;;14.38;53.25
8039;BME280;4062;49.844;8.120;2023-03-03T10:58:38;99925.19;;;14.38;53.16
8039;BME280;4062;49.844;8.120;2023-03-03T11:03:45;99930.56;;;14.37;53.14
8039;BME280;4062;49.844;8.120;2023-03-03T11:10:29;99923.50;;;14.36;53.22
8039;BME280;4062;49.844;8.120;2023-03-03T11:12:46;99928.84;;;14.36;53.19
8039;BME280;4062;49.844;8.120;2023-03-03T11:20:07;99924.44;;;14.35;53.14
8039;BME280;4062;49.844;8.120;2023-03-03T11:25:07;99931.53;;;14.34;53.24
8039;BME280;4062;49.844;8.120;2023-03-03T11:27:52;99932.41;;;14.35;53.20
8039;BME280;4062;49.844;8.120;2023-03-03T11:36:49;99923.59;;;14.33;53.25
8039;BME280;4062;49.844;8.120;2023-03-03T11:39:13;99922.75;;;14.32;53.24
8039;BME280;4062;49.844;8.120;2023-03-03T11:41:41;99925.41;;;14.32;53.16
8039;BME280;4062;49.844;8.120;2023-03-03T11:43:48;99926.31;;;14.31;53.16
8039;BME280;4062;49.844;8.120;2023-03-03T11:46:04;99913.03;;;14.31;53.22
8039;BME280;4062;49.844;8.120;2023-03-03T11:48:11;99918.34;;;14.31;53.15
8039;BME280;4062;49.844;8.120;2023-03-03T11:50:34;99908.63;;;14.30;53.27
8039;BME280;4062;49.844;8.120;2023-03-03T11:55:41;99905.09;;;14.30;53.07
8039;BME280;4062;49.844;8.120;2023-03-03T11:58:06;99913.09;;;14.30;53.16
8039;BME280;4062;49.844;8.120;2023-03-03T12:00:42;99904.22;;;14.29;53.20
8039;BME280;4062;49.844;8.120;2023-03-03T12:05:43;99906.03;;;14.29;53.15
8039;BME280;4062;49.844;8.120;2023-03-03T12:08:33;99900.72;;;14.29;53.28
8039;BME280;4062;49.844;8.120;2023-03-03T12:10:58;99898.97;;;14.28;53.24
8039;BME280;4062;49.844;8.120;2023-03-03T12:13:09;99896.31;;;14.28;53.12
8039;BME280;4062;49.844;8.120;2023-03-03T12:15:32;99893.66;;;14.28;53.18
8039;BME280;4062;49.844;8.120;2023-03-03T12:18:08;99888.34;;;14.28;53.12
8039;BME280;4062;49.844;8.120;2023-03-03T12:20:54;99889.19;;;14.28;53.18
8039;BME280;4062;49.844;8.120;2023-03-03T12:28:26;99873.16;;;14.31;53.31
8039;BME280;4062;49.844;8.120;2023-03-03T12:38:16;99871.25;;;14.35;53.41
8039;BME280;4062;49.844;8.120;2023-03-03T12:40:34;99869.50;;;14.35;53.20
8039;BME280;4062;49.844;8.120;2023-03-03T12:48:28;99857.06;;;14.36;53.25
8039;BME280;4062;49.844;8.120;2023-03-03T12:51:27;99861.53;;;14.35;53.10
8039;BME280;4062;49.844;8.120;2023-03-03T12:55:56;99848.22;;;14.35;53.26
8039;BME280;4062;49.844;8.120;2023-03-03T12:58:33;99844.69;;;14.35;53.09
8039;BME280;4062;49.844;8.120;2023-03-03T13:01:08;99843.78;;;14.36;53.12
8039;BME280;4062;49.844;8.120;2023-03-03T13:03:48;99841.16;;;14.34;53.01
8039;BME280;4062;49.844;8.120;2023-03-03T13:06:14;99834.06;;;14.35;53.06
8039;BME280;4062;49.844;8.120;2023-03-03T13:11:06;99827.88;;;14.34;53.00
8039;BME280;4062;49.844;8.120;2023-03-03T13:13:39;99824.34;;;14.34;53.02
8039;BME280;4062;49.844;8.120;2023-03-03T13:15:57;99826.13;;;14.33;53.00
8039;BME280;4062;49.844;8.120;2023-03-03T13:22:43;99830.56;;;14.33;52.90
8039;BME280;4062;49.844;8.120;2023-03-03T13:25:07;99830.56;;;14.33;53.01
8039;BME280;4062;49.844;8.120;2023-03-03T13:27:19;99828.81;;;14.32;53.09
8039;BME280;4062;49.844;8.120;2023-03-03T13:29:42;99822.66;;;14.31;52.95
8039;BME280;4062;49.844;8.120;2023-03-03T13:31:51;99821.78;;;14.31;52.84
8039;BME280;4062;49.844;8.120;2023-03-03T13:33:56;99826.22;;;14.30;53.02